Riddle, Oregon
Current Conditions -  °F | °C
As of 9:13 AM on Sunday 21 Dec 2014 (Local Time) from KRBG Reporting Station
Light Rain Light Rain  
Wind Chill: 57°   Ceiling: 2400
Heat Index: 57°   Visibility: 2.5mi
Dew Point: 54°   Wind: 3mph
Humidity: 89%   Direction: 120°ESE
Pressure: 30.12"   Gusts: NA
Location:  42.95°N, 123.36°W
Report Text: KRBG 211713Z AUTO 12003KT 2 1/2SM -RA BR OVC024 14/12 A3012 RMK AO2 P0000 T01390122
Loading
Personal Weather Stations






























Interactive Weather Map New forecast layout! Learn more

10-Day Weather Forecast

Advertisements
Track Severe Weather on mobile